Rising Fawn, Georgia
Current Conditions -  °F | °C
As of 1:55 AM on Monday 24 Nov 2014 (Local Time) from K4A9 Reporting Station
Overcast Overcast  
Wind Chill: 61°   Ceiling: 2100
Heat Index: 61°   Visibility: 10mi
Dew Point: 52°   Wind: 9mph
Humidity: 72%   Direction: 210°SSW
Pressure: 29.65"   Gusts: 16mph
Location:  34.76°N, 85.53°W
Report Text: K4A9 240655Z AUTO 21008G14KT 10SM BKN021 OVC026 16/11 A2965 RMK AO2
Loading
Personal Weather Stations






























Interactive Weather Map New forecast layout! Learn more

10-Day Weather Forecast

Advertisements
Track Severe Weather on mobile